createdAt,value
2023-05-04T00:01:18.918Z,7.30
2023-05-04T00:04:21.944Z,7.20
2023-05-04T00:07:25.144Z,7.00
2023-05-04T00:10:28.217Z,6.80
2023-05-04T00:13:31.299Z,7.30
2023-05-04T00:16:35.759Z,6.70
2023-05-04T00:19:41.066Z,6.50
2023-05-04T00:22:44.067Z,6.80
2023-05-04T00:25:47.109Z,7.30
2023-05-04T00:28:50.385Z,7.80
2023-05-04T00:31:53.509Z,7.10
2023-05-04T00:34:57.024Z,7.40
2023-05-04T00:38:04.797Z,6.60
2023-05-04T00:41:07.729Z,6.90
2023-05-04T00:44:10.874Z,6.80
2023-05-04T00:47:14.103Z,6.70
2023-05-04T00:50:17.257Z,6.80
2023-05-04T00:53:20.500Z,6.90
2023-05-04T00:56:24.649Z,7.20
2023-05-04T00:59:27.772Z,7.30
2023-05-04T01:02:31.030Z,7.10
2023-05-04T01:05:43.089Z,6.60
2023-05-04T01:09:02.640Z,7.00
2023-05-04T01:12:15.026Z,6.30
2023-05-04T01:15:18.480Z,6.60
2023-05-04T01:18:23.374Z,6.60
2023-05-04T01:21:29.722Z,6.00
2023-05-04T01:24:33.361Z,6.40
2023-05-04T01:27:58.459Z,6.50
2023-05-04T01:31:02.735Z,6.90
2023-05-04T01:34:08.834Z,6.20
2023-05-04T01:37:11.880Z,6.30
2023-05-04T01:40:15.804Z,6.50
2023-05-04T01:43:18.798Z,6.20
2023-05-04T01:46:22.049Z,6.30
2023-05-04T01:49:25.046Z,6.30
2023-05-04T01:52:28.026Z,6.50
2023-05-04T01:55:31.562Z,7.20
2023-05-04T01:58:34.644Z,6.20
2023-05-04T02:01:37.762Z,6.50
2023-05-04T02:04:41.483Z,5.70
2023-05-04T02:07:44.455Z,5.60
2023-05-04T02:10:48.161Z,6.40
2023-05-04T02:13:51.238Z,6.10
2023-05-04T02:16:54.483Z,6.20
2023-05-04T02:19:57.490Z,6.50
2023-05-04T02:23:00.800Z,5.80
2023-05-04T02:26:03.804Z,6.50
2023-05-04T02:29:06.816Z,6.10
2023-05-04T02:32:09.806Z,6.00
2023-05-04T02:35:13.047Z,6.00
2023-05-04T02:38:16.016Z,6.90
2023-05-04T02:41:19.079Z,6.20
2023-05-04T02:44:22.114Z,5.70
2023-05-04T02:47:25.275Z,5.90
2023-05-04T02:50:28.418Z,5.70
2023-05-04T02:53:31.462Z,5.60
2023-05-04T02:56:34.471Z,6.50
2023-05-04T02:59:37.551Z,6.50
2023-05-04T03:02:41.080Z,6.30
2023-05-04T03:05:44.126Z,6.00
2023-05-04T03:08:47.101Z,6.00
2023-05-04T03:11:50.145Z,5.80
2023-05-04T03:14:53.329Z,6.10
2023-05-04T03:17:56.517Z,5.90
2023-05-04T03:20:59.634Z,6.40
2023-05-04T03:24:03.941Z,5.70
2023-05-04T03:27:07.235Z,6.70
2023-05-04T03:30:14.673Z,6.10
2023-05-04T03:33:20.392Z,6.10
2023-05-04T03:36:23.524Z,6.10
2023-05-04T03:39:26.786Z,6.10
2023-05-04T03:42:29.986Z,5.70
2023-05-04T03:45:33.206Z,5.70
2023-05-04T03:48:36.364Z,5.70
2023-05-04T03:51:40.843Z,5.70
2023-05-04T03:54:44.046Z,6.00
2023-05-04T03:57:47.522Z,6.40
2023-05-04T04:00:50.574Z,5.80
2023-05-04T04:03:53.850Z,6.00
2023-05-04T04:06:57.073Z,5.90
2023-05-04T04:10:00.414Z,6.20
2023-05-04T04:13:03.507Z,5.90
2023-05-04T04:16:06.878Z,5.70
2023-05-04T04:19:09.899Z,5.20
2023-05-04T04:22:12.941Z,5.20
2023-05-04T04:25:15.915Z,5.20
2023-05-04T04:28:18.935Z,6.80
2023-05-04T04:31:22.034Z,5.60
2023-05-04T04:34:25.165Z,5.20
2023-05-04T04:37:28.371Z,5.60
2023-05-04T04:40:31.609Z,5.20
2023-05-04T04:43:34.852Z,5.70
2023-05-04T04:46:37.980Z,5.30
2023-05-04T04:49:41.010Z,4.70
2023-05-04T04:52:44.008Z,4.60
2023-05-04T04:55:47.166Z,5.10
2023-05-04T04:58:50.918Z,4.40
2023-05-04T05:01:53.933Z,4.30
2023-05-04T05:04:57.225Z,4.30
2023-05-04T05:08:00.310Z,3.90
2023-05-04T05:11:04.061Z,4.30
2023-05-04T05:14:07.178Z,4.10
2023-05-04T05:17:10.368Z,3.10
2023-05-04T05:20:15.277Z,3.20
2023-05-04T05:23:18.436Z,3.60
2023-05-04T05:26:21.762Z,3.30
2023-05-04T05:29:25.836Z,3.70
2023-05-04T05:32:29.294Z,3.20
2023-05-04T05:35:32.225Z,3.30
2023-05-04T05:38:35.434Z,3.40
2023-05-04T05:41:38.427Z,3.30
2023-05-04T05:44:41.542Z,2.60
2023-05-04T05:47:44.575Z,3.00
2023-05-04T05:50:47.670Z,2.70
2023-05-04T05:53:50.696Z,2.70
2023-05-04T05:56:53.692Z,2.50
2023-05-04T05:59:57.916Z,2.60
2023-05-04T06:03:00.942Z,2.90
2023-05-04T06:06:04.333Z,2.20
2023-05-04T06:09:07.345Z,2.20
2023-05-04T06:12:13.558Z,2.00
2023-05-04T06:15:16.658Z,2.40
2023-05-04T06:18:20.459Z,2.20
2023-05-04T06:21:23.481Z,2.20
2023-05-04T06:24:27.132Z,2.30
2023-05-04T06:28:26.188Z,2.10
2023-05-04T06:31:29.567Z,1.90
2023-05-04T06:34:41.606Z,1.80
2023-05-04T06:37:45.082Z,1.70
2023-05-04T06:40:48.519Z,2.00
2023-05-04T06:43:51.842Z,1.80
2023-05-04T06:47:01.555Z,1.60
2023-05-04T06:50:09.658Z,1.70
2023-05-04T06:53:16.105Z,1.60
2023-05-04T06:56:19.245Z,2.10
2023-05-04T06:59:27.614Z,1.70
2023-05-04T07:02:30.890Z,1.70
2023-05-04T07:05:48.731Z,1.90
2023-05-04T07:08:52.054Z,2.00
2023-05-04T07:11:56.298Z,2.00
2023-05-04T07:15:02.418Z,1.70
2023-05-04T07:18:51.133Z,1.50
2023-05-04T07:22:41.318Z,1.60
2023-05-04T07:25:48.480Z,2.00
2023-05-04T07:28:52.108Z,1.70
2023-05-04T07:32:27.247Z,1.70
2023-05-04T07:39:30.636Z,1.50
2023-05-04T07:46:49.449Z,1.60
2023-05-04T07:53:55.178Z,1.40
2023-05-04T07:56:58.590Z,1.60
2023-05-04T08:00:01.853Z,1.70
2023-05-04T08:03:08.032Z,1.70
2023-05-04T08:06:17.440Z,1.90
2023-05-04T08:09:20.645Z,1.60
2023-05-04T08:12:26.270Z,2.00
2023-05-04T08:15:36.602Z,1.70
2023-05-04T08:18:39.772Z,1.60
2023-05-04T08:21:42.987Z,1.60
2023-05-04T08:25:23.017Z,1.60
2023-05-04T08:31:26.645Z,1.40
2023-05-04T08:34:28.386Z,1.70
2023-05-04T08:37:32.008Z,1.60
2023-05-04T08:40:34.443Z,1.70
2023-05-04T08:43:36.873Z,1.70
2023-05-04T08:46:40.406Z,1.90
2023-05-04T08:49:53.738Z,1.70
2023-05-04T08:53:51.822Z,1.70
2023-05-04T09:02:00.007Z,1.60
2023-05-04T09:05:02.175Z,2.90
2023-05-04T09:14:12.236Z,1.60
2023-05-04T09:21:16.914Z,1.70
2023-05-04T09:24:30.811Z,1.50
2023-05-04T09:27:34.221Z,1.60
2023-05-04T09:49:29.429Z,1.50
2023-05-04T09:53:06.066Z,1.60
2023-05-04T09:56:48.813Z,1.30
2023-05-04T10:00:22.413Z,1.60
2023-05-04T10:19:32.369Z,2.00
2023-05-04T10:23:52.308Z,1.60
2023-05-04T10:28:40.606Z,1.50
2023-05-04T10:31:44.974Z,1.30
2023-05-04T10:35:10.174Z,1.40
2023-05-04T10:38:16.565Z,1.60
2023-05-04T10:41:21.958Z,1.40
2023-05-04T10:44:25.642Z,1.60
2023-05-04T10:47:45.336Z,1.70
2023-05-04T10:50:51.647Z,1.60
2023-05-04T10:53:54.761Z,1.70
2023-05-04T10:57:12.727Z,1.50
2023-05-04T11:00:16.717Z,1.30
2023-05-04T11:03:22.476Z,1.70
2023-05-04T11:06:26.377Z,1.80
2023-05-04T11:09:37.524Z,1.60
2023-05-04T11:12:40.814Z,1.60
2023-05-04T11:16:04.971Z,1.60
2023-05-04T11:19:12.618Z,1.60
2023-05-04T11:22:17.063Z,1.60
2023-05-04T11:25:30.478Z,1.40
2023-05-04T11:28:37.978Z,1.50
2023-05-04T11:31:41.376Z,1.40
2023-05-04T11:34:48.386Z,1.70
2023-05-04T11:37:51.787Z,1.60
2023-05-04T11:40:55.605Z,1.60
2023-05-04T11:44:01.826Z,1.40
2023-05-04T11:47:05.127Z,1.30
2023-05-04T11:50:11.061Z,1.40
2023-05-04T11:53:14.369Z,1.90
2023-05-04T11:56:17.488Z,1.40
2023-05-04T11:59:20.970Z,1.60
2023-05-04T12:02:25.882Z,1.50
2023-05-04T12:05:31.154Z,1.60
2023-05-04T12:08:47.689Z,1.90
2023-05-04T12:11:56.384Z,2.30
2023-05-04T12:14:59.363Z,2.00
2023-05-04T12:18:03.501Z,1.50
2023-05-04T12:21:10.482Z,1.70
2023-05-04T12:24:13.879Z,1.80
2023-05-04T12:27:17.723Z,1.30
2023-05-04T12:30:20.854Z,1.50
2023-05-04T12:33:24.062Z,1.50
2023-05-04T12:36:27.783Z,1.90
2023-05-04T12:39:32.660Z,1.90
2023-05-04T12:42:35.699Z,1.50
2023-05-04T12:45:39.294Z,1.60
2023-05-04T12:48:42.417Z,1.80
2023-05-04T12:51:45.925Z,1.50
2023-05-04T12:54:49.891Z,1.60
2023-05-04T12:57:53.260Z,1.80
2023-05-04T13:00:58.072Z,1.80
2023-05-04T13:04:01.438Z,1.40
2023-05-04T13:07:04.590Z,1.40
2023-05-04T13:10:08.373Z,1.30
2023-05-04T13:13:11.528Z,1.50
2023-05-04T13:16:15.092Z,1.50
2023-05-04T13:19:18.559Z,1.50
2023-05-04T13:22:22.012Z,1.60
2023-05-04T13:25:25.638Z,1.50
2023-05-04T13:28:39.352Z,1.50
2023-05-04T13:31:44.777Z,1.50
2023-05-04T13:34:49.217Z,1.50
2023-05-04T13:37:52.638Z,1.90
2023-05-04T13:40:56.067Z,1.80
2023-05-04T13:43:59.522Z,1.40
2023-05-04T13:47:03.438Z,1.40
2023-05-04T13:50:07.316Z,1.40
2023-05-04T13:53:13.623Z,1.40
2023-05-04T13:56:16.735Z,1.40
2023-05-04T13:59:20.204Z,1.70
2023-05-04T14:02:23.546Z,1.40
2023-05-04T14:05:26.755Z,1.60
2023-05-04T14:08:30.837Z,1.70
2023-05-04T14:11:33.997Z,1.50
2023-05-04T14:14:37.016Z,1.40
2023-05-04T14:17:41.432Z,1.60
2023-05-04T14:20:44.534Z,1.50
2023-05-04T14:23:48.040Z,1.40
2023-05-04T14:26:51.230Z,1.50
2023-05-04T14:29:54.380Z,1.20
2023-05-04T14:32:58.330Z,1.20
2023-05-04T14:36:01.889Z,1.20
2023-05-04T14:39:13.840Z,1.40
2023-05-04T14:42:30.363Z,1.40
2023-05-04T14:46:32.288Z,1.30
2023-05-04T14:49:37.678Z,1.60
2023-05-04T14:52:42.269Z,1.50
2023-05-04T14:55:53.589Z,1.40
2023-05-04T14:59:01.739Z,1.60
2023-05-04T15:10:03.497Z,1.50
2023-05-04T15:14:08.320Z,1.60
2023-05-04T15:21:46.130Z,1.70
2023-05-04T15:24:49.137Z,1.40
2023-05-04T15:27:52.165Z,1.50
2023-05-04T15:30:55.231Z,1.30
2023-05-04T15:34:00.553Z,1.30
2023-05-04T15:37:03.593Z,1.50
2023-05-04T15:40:08.104Z,1.80
2023-05-04T15:43:11.430Z,1.50
2023-05-04T15:46:37.789Z,1.40
2023-05-04T15:49:40.919Z,1.40
2023-05-04T15:52:43.983Z,1.40
2023-05-04T15:55:46.939Z,1.30
2023-05-04T15:58:50.095Z,1.20
2023-05-04T16:01:53.431Z,1.50
2023-05-04T16:04:56.475Z,1.30
2023-05-04T16:08:01.273Z,1.60
2023-05-04T16:11:05.452Z,1.60
2023-05-04T16:14:08.576Z,1.60
2023-05-04T16:17:11.727Z,1.40
2023-05-04T16:59:15.907Z,1.30
2023-05-04T17:02:17.867Z,1.50
2023-05-04T17:05:20.424Z,2.00
2023-05-04T17:08:22.692Z,1.50
2023-05-04T17:14:26.679Z,1.40
2023-05-04T17:17:28.532Z,2.30
2023-05-04T17:20:31.244Z,2.20
2023-05-04T17:23:32.992Z,2.10
2023-05-04T17:26:34.702Z,2.60
2023-05-04T17:29:36.380Z,2.80
2023-05-04T17:32:38.141Z,2.50
2023-05-04T17:35:40.302Z,2.60
2023-05-04T17:41:47.887Z,2.50
2023-05-04T17:44:49.624Z,2.50
2023-05-04T17:47:51.646Z,3.00
2023-05-04T17:50:53.423Z,4.20
2023-05-04T17:53:55.141Z,4.30
2023-05-04T17:56:56.838Z,5.50
2023-05-04T18:00:04.539Z,4.30
2023-05-04T18:03:06.749Z,5.70
2023-05-04T18:06:08.973Z,6.60
2023-05-04T18:09:11.202Z,6.20
2023-05-04T18:15:17.788Z,5.70
2023-05-04T18:18:19.472Z,6.20
2023-05-04T18:21:21.345Z,7.00
2023-05-04T18:24:23.001Z,7.10
2023-05-04T18:27:24.698Z,6.80
2023-05-04T18:30:26.716Z,6.50
2023-05-04T18:33:28.757Z,7.40
2023-05-04T18:36:30.555Z,7.00
2023-05-04T18:39:32.317Z,6.10
2023-05-04T18:42:34.126Z,6.30
2023-05-04T18:45:39.260Z,6.10
2023-05-04T18:48:41.405Z,6.50
2023-05-04T18:51:43.783Z,6.00
2023-05-04T18:55:11.363Z,6.60
2023-05-04T18:58:13.196Z,8.20
2023-05-04T19:01:15.218Z,6.40
2023-05-04T19:04:17.104Z,7.60
2023-05-04T19:07:32.335Z,7.40
2023-05-04T19:10:34.175Z,8.80
2023-05-04T19:13:36.298Z,9.10
2023-05-04T19:16:38.121Z,8.70
2023-05-04T19:19:39.977Z,9.50
2023-05-04T19:22:41.720Z,8.10
2023-05-04T19:25:44.686Z,8.00
2023-05-04T19:28:48.561Z,7.80
2023-05-04T19:31:50.309Z,8.70
2023-05-04T19:34:52.168Z,8.20
2023-05-04T19:37:53.886Z,7.90
2023-05-04T19:40:56.013Z,7.50
2023-05-04T19:43:57.746Z,6.60
2023-05-04T19:46:59.686Z,6.40
2023-05-04T19:50:03.018Z,6.00
2023-05-04T19:53:12.285Z,5.60
2023-05-04T19:56:14.002Z,6.30
2023-05-04T19:59:15.792Z,5.40
2023-05-04T20:02:17.685Z,5.20
2023-05-04T20:05:19.475Z,5.30
2023-05-04T20:08:21.204Z,5.50
2023-05-04T20:11:22.902Z,6.40
2023-05-04T20:14:24.649Z,5.80
2023-05-04T20:17:26.885Z,5.90
2023-05-04T20:23:30.194Z,6.00
2023-05-04T20:26:32.054Z,5.90
2023-05-04T20:29:34.271Z,6.00
2023-05-04T20:35:40.258Z,4.90
2023-05-04T20:38:41.921Z,5.00
2023-05-04T20:41:43.628Z,4.60
2023-05-04T20:44:45.440Z,4.70
2023-05-04T20:47:47.215Z,4.10
2023-05-04T20:50:50.331Z,4.30
2023-05-04T20:53:53.403Z,4.50
2023-05-04T20:56:55.457Z,4.00
2023-05-04T20:59:57.271Z,4.50
2023-05-04T21:02:59.058Z,4.00
2023-05-04T21:06:01.348Z,5.00
2023-05-04T21:12:05.416Z,4.60
2023-05-04T21:15:07.868Z,5.30
2023-05-04T21:18:09.931Z,5.90
2023-05-04T21:21:11.646Z,5.50
2023-05-04T21:24:13.623Z,5.80
2023-05-04T21:27:15.282Z,5.80
2023-05-04T21:30:17.077Z,5.80
2023-05-04T21:33:18.758Z,6.00
2023-05-04T21:36:22.358Z,5.00
2023-05-04T21:39:24.086Z,5.50
2023-05-04T21:42:25.806Z,5.70
2023-05-04T21:45:32.919Z,5.60
2023-05-04T21:48:35.422Z,5.30
2023-05-04T21:51:37.242Z,7.20
2023-05-04T21:54:39.047Z,6.60
2023-05-04T21:57:40.864Z,6.80
2023-05-04T22:00:43.567Z,7.20
2023-05-04T22:03:45.432Z,7.40
2023-05-04T22:06:47.689Z,7.30
2023-05-04T22:09:49.318Z,7.90
2023-05-04T22:12:51.337Z,8.00
2023-05-04T22:15:53.233Z,8.00
2023-05-04T22:18:54.932Z,8.70
2023-05-04T22:21:56.591Z,8.10
2023-05-04T22:24:58.282Z,8.30
2023-05-04T22:28:00.243Z,7.60
2023-05-04T22:31:01.959Z,8.50
2023-05-04T22:34:03.754Z,8.40
2023-05-04T22:37:05.439Z,8.10
2023-05-04T22:40:08.241Z,8.50
2023-05-04T22:43:10.064Z,8.20
2023-05-04T22:46:16.254Z,7.70
2023-05-04T22:49:17.973Z,7.70
2023-05-04T22:52:19.950Z,8.60
2023-05-04T22:55:21.729Z,7.10
2023-05-04T22:58:23.542Z,8.30
2023-05-04T23:01:26.816Z,7.50
2023-05-04T23:04:29.485Z,8.40
2023-05-04T23:07:31.350Z,7.70
2023-05-04T23:10:33.073Z,8.50
2023-05-04T23:13:34.749Z,7.70
2023-05-04T23:16:37.033Z,7.90
2023-05-04T23:22:40.684Z,9.20
2023-05-04T23:25:42.526Z,10.10
2023-05-04T23:28:44.300Z,9.40
2023-05-04T23:31:46.031Z,9.30
2023-05-04T23:34:47.739Z,10.00
2023-05-04T23:37:49.488Z,10.10
2023-05-04T23:40:51.554Z,9.50
2023-05-04T23:43:53.294Z,9.10
2023-05-04T23:46:55.034Z,8.80
2023-05-04T23:49:56.704Z,8.70
2023-05-04T23:52:58.351Z,8.70
2023-05-04T23:56:03.488Z,8.10
2023-05-04T23:59:05.977Z,7.90
